createdAt,value
2022-09-14T00:00:29.140Z,16.22
2022-09-14T00:01:14.306Z,16.22
2022-09-14T00:01:33.155Z,16.22
2022-09-14T00:01:56.473Z,16.22
2022-09-14T00:02:19.443Z,16.22
2022-09-14T00:02:53.386Z,16.22
2022-09-14T00:03:25.158Z,16.22
2022-09-14T00:03:56.940Z,16.22
2022-09-14T00:04:29.507Z,16.22
2022-09-14T00:04:53.707Z,16.22
2022-09-14T00:05:16.105Z,16.22
2022-09-14T00:05:49.120Z,16.22
2022-09-14T00:06:20.979Z,16.22
2022-09-14T00:06:53.050Z,16.22
2022-09-14T00:07:23.072Z,16.22
2022-09-14T00:07:56.836Z,16.22
2022-09-14T00:08:28.958Z,16.22
2022-09-14T00:08:51.658Z,16.22
2022-09-14T00:09:13.958Z,16.22
2022-09-14T00:09:49.110Z,16.22
2022-09-14T00:10:21.051Z,16.22
2022-09-14T00:10:52.904Z,16.22
2022-09-14T00:11:23.140Z,16.22
2022-09-14T00:11:57.208Z,16.22
2022-09-14T00:12:28.853Z,16.22
2022-09-14T00:12:52.426Z,16.22
2022-09-14T00:13:14.817Z,16.22
2022-09-14T00:13:49.417Z,16.22
2022-09-14T00:14:20.996Z,16.22
2022-09-14T00:14:52.851Z,16.22
2022-09-14T00:15:23.257Z,16.22
2022-09-14T00:15:56.929Z,16.22
2022-09-14T00:16:29.315Z,16.22
2022-09-14T00:16:52.314Z,16.22
2022-09-14T00:17:14.370Z,16.22
2022-09-14T00:17:49.437Z,16.22
2022-09-14T00:18:21.438Z,16.22
2022-09-14T00:18:52.840Z,16.22
2022-09-14T00:19:23.195Z,16.22
2022-09-14T00:19:56.926Z,16.22
2022-09-14T00:20:28.935Z,16.22
2022-09-14T00:20:51.661Z,16.22
2022-09-14T00:21:14.102Z,16.22
2022-09-14T00:21:48.843Z,16.22
2022-09-14T00:22:20.978Z,16.22
2022-09-14T00:22:53.137Z,16.22
2022-09-14T00:23:24.878Z,16.22
2022-09-14T00:23:57.056Z,16.22
2022-09-14T00:24:29.338Z,16.22
2022-09-14T00:24:51.797Z,16.22
2022-09-14T00:25:14.261Z,16.22
2022-09-14T00:25:49.005Z,16.22
2022-09-14T00:26:20.948Z,16.11
2022-09-14T00:26:53.063Z,16.11
2022-09-14T00:27:23.098Z,16.11
2022-09-14T00:27:56.934Z,16.11
2022-09-14T00:28:28.919Z,16.11
2022-09-14T00:28:51.850Z,16.11
2022-09-14T00:29:14.239Z,16.11
2022-09-14T00:29:48.948Z,16.11
2022-09-14T00:30:21.001Z,16.11
2022-09-14T00:30:53.234Z,16.11
2022-09-14T00:31:23.136Z,16.11
2022-09-14T00:31:57.096Z,16.11
2022-09-14T00:32:29.038Z,16.11
2022-09-14T00:32:52.943Z,16.11
2022-09-14T00:33:15.437Z,16.11
2022-09-14T00:33:48.898Z,16.11
2022-09-14T00:34:21.015Z,16.11
2022-09-14T00:34:52.890Z,16.11
2022-09-14T00:35:23.137Z,16.11
2022-09-14T00:35:57.071Z,16.11
2022-09-14T00:36:28.948Z,16.11
2022-09-14T00:36:51.691Z,16.11
2022-09-14T00:37:14.510Z,16.11
2022-09-14T00:37:48.982Z,16.11
2022-09-14T00:38:21.281Z,16.11
2022-09-14T00:38:52.913Z,16.11
2022-09-14T00:39:23.111Z,16.11
2022-09-14T00:39:57.168Z,16.00
2022-09-14T00:40:29.115Z,16.00
2022-09-14T00:40:51.588Z,16.00
2022-09-14T00:41:20.385Z,16.00
2022-09-14T00:41:48.965Z,16.00
2022-09-14T00:42:20.799Z,16.00
2022-09-14T00:42:53.000Z,16.00
2022-09-14T00:43:23.500Z,16.00
2022-09-14T00:43:56.971Z,16.00
2022-09-14T00:44:28.909Z,16.00
2022-09-14T00:44:51.888Z,16.00
2022-09-14T00:45:14.113Z,16.00
2022-09-14T00:45:48.970Z,16.00
2022-09-14T00:46:20.900Z,16.00
2022-09-14T00:46:52.868Z,16.00
2022-09-14T00:47:24.656Z,16.00
2022-09-14T00:47:58.306Z,16.00
2022-09-14T00:48:29.012Z,16.00
2022-09-14T00:48:52.462Z,16.00
2022-09-14T00:49:15.072Z,16.00
2022-09-14T00:49:48.959Z,16.00
2022-09-14T00:50:20.832Z,16.00
2022-09-14T00:50:52.823Z,16.00
2022-09-14T00:51:23.081Z,16.00
2022-09-14T00:51:58.462Z,16.00
2022-09-14T00:52:28.832Z,16.00
2022-09-14T00:52:53.559Z,16.00
2022-09-14T00:53:15.974Z,16.00
2022-09-14T00:53:48.910Z,16.00
2022-09-14T00:54:21.462Z,16.00
2022-09-14T00:54:53.182Z,16.00
2022-09-14T00:55:24.908Z,16.00
2022-09-14T00:55:56.903Z,16.00
2022-09-14T00:56:28.916Z,16.00
2022-09-14T00:56:51.487Z,16.00
2022-09-14T00:57:14.794Z,16.00
2022-09-14T00:57:49.003Z,16.00
2022-09-14T00:58:20.933Z,16.00
2022-09-14T00:58:52.997Z,16.00
2022-09-14T00:59:23.125Z,16.00
2022-09-14T00:59:56.997Z,16.00
2022-09-14T01:00:28.931Z,16.00
2022-09-14T01:00:51.869Z,15.88
2022-09-14T01:01:15.161Z,15.88
2022-09-14T01:01:54.552Z,15.88
2022-09-14T01:02:20.981Z,15.88
2022-09-14T01:02:52.945Z,15.88
2022-09-14T01:03:21.034Z,16.00
2022-09-14T01:03:57.580Z,16.00
2022-09-14T01:04:29.700Z,16.00
2022-09-14T01:04:52.775Z,16.00
2022-09-14T01:05:15.816Z,16.00
2022-09-14T01:05:50.044Z,16.00
2022-09-14T01:06:21.145Z,16.00
2022-09-14T01:06:53.361Z,16.00
2022-09-14T01:07:23.259Z,15.88
2022-09-14T01:07:57.888Z,15.88
2022-09-14T01:08:29.183Z,15.88
2022-09-14T01:08:51.688Z,15.88
2022-09-14T01:09:16.089Z,15.88
2022-09-14T01:09:49.279Z,16.00
2022-09-14T01:10:21.706Z,16.00
2022-09-14T01:10:53.215Z,16.00
2022-09-14T01:11:24.192Z,15.88
2022-09-14T01:11:57.391Z,15.88
2022-09-14T01:12:29.469Z,15.88
2022-09-14T01:12:51.715Z,15.88
2022-09-14T01:13:16.863Z,15.88
2022-09-14T01:13:49.397Z,15.88
2022-09-14T01:14:20.910Z,15.88
2022-09-14T01:14:53.536Z,15.88
2022-09-14T01:15:23.371Z,15.88
2022-09-14T01:15:57.974Z,15.88
2022-09-14T01:16:29.106Z,15.88
2022-09-14T01:16:51.627Z,15.88
2022-09-14T01:17:18.022Z,15.88
2022-09-14T01:17:49.772Z,15.88
2022-09-14T01:18:21.261Z,15.88
2022-09-14T01:18:52.798Z,15.88
2022-09-14T01:19:23.978Z,15.88
2022-09-14T01:19:57.126Z,15.88
2022-09-14T01:20:29.262Z,15.88
2022-09-14T01:20:51.894Z,15.88
2022-09-14T01:21:14.254Z,15.88
2022-09-14T01:21:49.635Z,15.88
2022-09-14T01:22:21.113Z,15.88
2022-09-14T01:22:53.540Z,15.88
2022-09-14T01:23:23.218Z,15.77
2022-09-14T01:23:56.876Z,15.88
2022-09-14T01:24:29.130Z,15.88
2022-09-14T01:24:51.970Z,15.88
2022-09-14T01:25:14.600Z,15.88
2022-09-14T01:25:49.479Z,15.88
2022-09-14T01:26:21.091Z,15.88
2022-09-14T01:26:53.251Z,15.88
2022-09-14T01:27:23.177Z,15.88
2022-09-14T01:27:56.788Z,15.88
2022-09-14T01:28:29.345Z,15.88
2022-09-14T01:28:51.816Z,15.88
2022-09-14T01:29:14.429Z,15.88
2022-09-14T01:29:49.228Z,15.88
2022-09-14T01:30:21.341Z,15.88
2022-09-14T01:30:54.152Z,15.88
2022-09-14T01:31:25.544Z,15.88
2022-09-14T01:31:58.452Z,15.88
2022-09-14T01:32:29.066Z,15.88
2022-09-14T01:32:51.703Z,15.77
2022-09-14T01:33:14.518Z,15.77
2022-09-14T01:33:48.879Z,15.77
2022-09-14T01:34:23.367Z,15.77
2022-09-14T01:34:52.849Z,15.77
2022-09-14T01:35:23.216Z,15.77
2022-09-14T01:35:57.029Z,15.77
2022-09-14T01:36:28.823Z,15.77
2022-09-14T01:36:51.538Z,15.77
2022-09-14T01:37:14.075Z,15.77
2022-09-14T01:37:49.496Z,15.77
2022-09-14T01:38:21.006Z,15.77
2022-09-14T01:38:53.185Z,15.77
2022-09-14T01:39:23.336Z,15.77
2022-09-14T01:39:57.354Z,15.77
2022-09-14T01:40:28.967Z,15.77
2022-09-14T01:40:51.427Z,15.77
2022-09-14T01:41:19.936Z,15.77
2022-09-14T01:41:48.837Z,15.77
2022-09-14T01:42:21.317Z,15.77
2022-09-14T01:42:52.971Z,15.77
2022-09-14T01:43:23.188Z,15.77
2022-09-14T01:43:57.343Z,15.77
2022-09-14T01:44:28.958Z,15.77
2022-09-14T01:44:51.688Z,15.77
2022-09-14T01:45:14.186Z,15.77
2022-09-14T01:45:50.410Z,15.72
2022-09-14T01:46:23.169Z,15.72
2022-09-14T01:46:53.454Z,15.72
2022-09-14T01:47:23.411Z,15.72
2022-09-14T01:47:57.192Z,15.72
2022-09-14T01:48:28.901Z,15.72
2022-09-14T01:48:51.598Z,15.72
2022-09-14T01:49:15.028Z,15.72
2022-09-14T01:49:48.882Z,15.72
2022-09-14T01:50:22.075Z,15.72
2022-09-14T01:50:52.870Z,15.72
2022-09-14T01:51:23.546Z,15.72
2022-09-14T01:51:56.825Z,15.72
2022-09-14T01:52:28.957Z,15.72
2022-09-14T01:52:51.756Z,15.72
2022-09-14T01:53:14.210Z,15.72
2022-09-14T01:53:49.071Z,15.72
2022-09-14T01:54:22.641Z,15.72
2022-09-14T01:54:52.943Z,15.72
2022-09-14T01:55:23.328Z,15.72
2022-09-14T01:55:56.852Z,15.72
2022-09-14T01:56:28.822Z,15.72
2022-09-14T01:56:51.624Z,15.72
2022-09-14T01:57:14.514Z,15.72
2022-09-14T01:57:49.138Z,15.72
2022-09-14T01:58:23.741Z,15.72
2022-09-14T01:58:53.453Z,15.72
2022-09-14T01:59:24.017Z,15.72
2022-09-14T01:59:57.090Z,15.72
2022-09-14T02:00:29.724Z,15.72
2022-09-14T02:00:52.606Z,15.72
2022-09-14T02:01:14.973Z,15.72
2022-09-14T02:01:51.165Z,15.61
2022-09-14T02:02:20.815Z,15.72
2022-09-14T02:02:53.659Z,15.61
2022-09-14T02:03:25.831Z,15.61
2022-09-14T02:03:57.406Z,15.61
2022-09-14T02:04:28.993Z,15.61
2022-09-14T02:04:52.051Z,15.61
2022-09-14T02:05:14.548Z,15.61
2022-09-14T02:05:49.467Z,15.61
2022-09-14T02:06:21.010Z,15.61
2022-09-14T02:06:52.918Z,15.61
2022-09-14T02:07:26.575Z,15.61
2022-09-14T02:07:56.863Z,15.61
2022-09-14T02:08:28.914Z,15.61
2022-09-14T02:08:51.517Z,15.61
2022-09-14T02:09:13.961Z,15.61
2022-09-14T02:09:49.385Z,15.61
2022-09-14T02:10:21.230Z,15.61
2022-09-14T02:11:01.371Z,15.61
2022-09-14T02:11:23.738Z,15.50
2022-09-14T02:11:57.561Z,15.50
2022-09-14T02:12:29.048Z,15.50
2022-09-14T02:12:51.787Z,15.50
2022-09-14T02:13:14.512Z,15.50
2022-09-14T02:13:50.334Z,15.50
2022-09-14T02:14:21.295Z,15.50
2022-09-14T02:14:52.928Z,15.50
2022-09-14T02:15:24.338Z,15.50
2022-09-14T02:15:57.375Z,15.50
2022-09-14T02:16:28.901Z,15.50
2022-09-14T02:16:51.697Z,15.50
2022-09-14T02:17:14.099Z,15.50
2022-09-14T02:17:49.177Z,15.50
2022-09-14T02:18:20.914Z,15.50
2022-09-14T02:18:53.720Z,15.50
2022-09-14T02:19:24.040Z,15.50
2022-09-14T02:19:57.341Z,15.50
2022-09-14T02:20:28.914Z,15.50
2022-09-14T02:20:51.460Z,15.50
2022-09-14T02:21:14.008Z,15.50
2022-09-14T02:21:48.900Z,15.50
2022-09-14T02:22:20.940Z,15.50
2022-09-14T02:22:52.682Z,15.50
2022-09-14T02:23:24.235Z,15.50
2022-09-14T02:23:56.859Z,15.50
2022-09-14T02:24:29.248Z,15.50
2022-09-14T02:24:51.807Z,15.50
2022-09-14T02:25:14.601Z,15.50
2022-09-14T02:25:49.212Z,15.50
2022-09-14T02:26:20.798Z,15.50
2022-09-14T02:26:52.780Z,15.50
2022-09-14T02:27:23.120Z,15.50
2022-09-14T02:27:56.811Z,15.50
2022-09-14T02:28:29.877Z,15.50
2022-09-14T02:28:51.508Z,15.38
2022-09-14T02:29:14.853Z,15.38
2022-09-14T02:29:49.078Z,15.38
2022-09-14T02:30:21.526Z,15.38
2022-09-14T02:30:53.255Z,15.38
2022-09-14T02:31:23.478Z,15.38
2022-09-14T02:31:56.909Z,15.38
2022-09-14T02:32:30.306Z,15.38
2022-09-14T02:32:51.661Z,15.38
2022-09-14T02:33:14.178Z,15.38
2022-09-14T02:33:49.268Z,15.38
2022-09-14T02:34:20.977Z,15.38
2022-09-14T02:34:53.822Z,15.38
2022-09-14T02:35:23.612Z,15.38
2022-09-14T02:35:57.409Z,15.38
2022-09-14T02:36:30.713Z,15.38
2022-09-14T02:36:51.683Z,15.38
2022-09-14T02:37:14.118Z,15.38
2022-09-14T02:37:48.970Z,15.38
2022-09-14T02:38:21.380Z,15.38
2022-09-14T02:38:54.591Z,15.38
2022-09-14T02:39:24.658Z,15.38
2022-09-14T02:39:57.138Z,15.38
2022-09-14T02:40:31.403Z,15.38
2022-09-14T02:40:52.156Z,15.38
2022-09-14T02:41:16.081Z,15.38
2022-09-14T02:41:49.001Z,15.50
2022-09-14T02:42:20.964Z,15.50
2022-09-14T02:42:53.326Z,15.50
2022-09-14T02:43:23.303Z,15.50
2022-09-14T02:43:57.190Z,15.50
2022-09-14T02:44:28.867Z,15.50
2022-09-14T02:44:51.440Z,15.50
2022-09-14T02:45:14.271Z,15.38
2022-09-14T02:45:49.219Z,15.38
2022-09-14T02:46:20.823Z,15.38
2022-09-14T02:46:52.809Z,15.38
2022-09-14T02:47:23.430Z,15.38
2022-09-14T02:47:56.764Z,15.38
2022-09-14T02:48:28.793Z,15.38
2022-09-14T02:48:51.656Z,15.38
2022-09-14T02:49:14.017Z,15.38
2022-09-14T02:49:50.307Z,15.38
2022-09-14T02:50:20.750Z,15.38
2022-09-14T02:50:52.847Z,15.38
2022-09-14T02:51:24.457Z,15.38
2022-09-14T02:51:56.848Z,15.38
2022-09-14T02:52:28.831Z,15.38
2022-09-14T02:52:51.695Z,15.38
2022-09-14T02:53:14.518Z,15.38
2022-09-14T02:53:48.982Z,15.38
2022-09-14T02:54:21.130Z,15.38
2022-09-14T02:54:52.858Z,15.38
2022-09-14T02:55:24.000Z,15.38
2022-09-14T02:55:56.790Z,15.38
2022-09-14T02:56:29.098Z,15.38
2022-09-14T02:56:51.878Z,15.38
2022-09-14T02:57:14.149Z,15.38
2022-09-14T02:57:49.089Z,15.38
2022-09-14T02:58:20.721Z,15.38
2022-09-14T02:58:52.685Z,15.38
2022-09-14T02:59:23.733Z,15.38
2022-09-14T02:59:58.374Z,15.38
2022-09-14T03:00:28.913Z,15.38
2022-09-14T03:00:51.481Z,15.38
2022-09-14T03:01:14.212Z,15.38
2022-09-14T03:01:48.941Z,15.38
2022-09-14T03:02:20.778Z,15.38
2022-09-14T03:02:52.761Z,15.38
2022-09-14T03:03:23.282Z,15.38
2022-09-14T03:03:56.730Z,15.38
2022-09-14T03:04:29.183Z,15.38
2022-09-14T03:04:51.768Z,15.38
2022-09-14T03:05:14.120Z,15.38
2022-09-14T03:05:49.685Z,15.38
2022-09-14T03:06:20.759Z,15.38
2022-09-14T03:06:53.638Z,15.38
2022-09-14T03:07:23.645Z,15.38
2022-09-14T03:07:57.302Z,15.38
2022-09-14T03:08:28.709Z,15.38
2022-09-14T03:08:51.414Z,15.38
2022-09-14T03:09:13.796Z,15.38
2022-09-14T03:09:49.242Z,15.38
2022-09-14T03:10:22.190Z,15.38
2022-09-14T03:10:53.082Z,15.38
2022-09-14T03:11:23.600Z,15.38
2022-09-14T03:11:57.113Z,15.38
2022-09-14T03:12:29.423Z,15.38
2022-09-14T03:12:52.119Z,15.38
2022-09-14T03:13:14.487Z,15.38
2022-09-14T03:13:49.549Z,15.38
2022-09-14T03:14:20.855Z,15.38
2022-09-14T03:14:52.959Z,15.38
2022-09-14T03:15:23.421Z,15.38
2022-09-14T03:15:56.910Z,15.38
2022-09-14T03:16:28.876Z,15.38
2022-09-14T03:16:51.399Z,15.38
2022-09-14T03:17:14.146Z,15.38
2022-09-14T03:17:49.182Z,15.50
2022-09-14T03:18:21.491Z,15.50
2022-09-14T03:18:52.713Z,15.50
2022-09-14T03:19:23.852Z,15.50
2022-09-14T03:19:56.809Z,15.50
2022-09-14T03:20:29.250Z,15.50
2022-09-14T03:20:51.708Z,15.50
2022-09-14T03:21:14.310Z,15.50
2022-09-14T03:21:49.522Z,15.50
2022-09-14T03:22:21.043Z,15.50
2022-09-14T03:22:52.801Z,15.50
2022-09-14T03:23:23.342Z,15.50
2022-09-14T03:23:56.802Z,15.50
2022-09-14T03:24:28.971Z,15.50
2022-09-14T03:24:51.443Z,15.50
2022-09-14T03:25:14.913Z,15.50
2022-09-14T03:25:48.715Z,15.38
2022-09-14T03:26:20.981Z,15.38
2022-09-14T03:26:52.746Z,15.38
2022-09-14T03:27:23.766Z,15.38
2022-09-14T03:27:56.774Z,15.38
2022-09-14T03:28:29.607Z,15.38
2022-09-14T03:28:52.433Z,15.38
2022-09-14T03:29:14.740Z,15.38
2022-09-14T03:29:50.221Z,15.38
2022-09-14T03:30:20.956Z,15.38
2022-09-14T03:30:53.662Z,15.38
2022-09-14T03:31:23.373Z,15.38
2022-09-14T03:31:56.729Z,15.38
2022-09-14T03:32:28.707Z,15.27
2022-09-14T03:32:51.365Z,15.27
2022-09-14T03:33:14.707Z,15.27
2022-09-14T03:33:48.730Z,15.27
2022-09-14T03:34:25.995Z,15.38
2022-09-14T03:34:48.562Z,15.38
2022-09-14T03:35:23.538Z,15.38
2022-09-14T03:35:57.372Z,15.38
2022-09-14T03:36:28.742Z,15.38
2022-09-14T03:36:51.581Z,15.38
2022-09-14T03:37:13.923Z,15.38
2022-09-14T03:37:48.657Z,15.38
2022-09-14T03:38:20.769Z,15.38
2022-09-14T03:38:52.725Z,15.38
2022-09-14T03:39:23.182Z,15.38
2022-09-14T03:39:56.643Z,15.38
2022-09-14T03:40:29.110Z,15.38
2022-09-14T03:40:51.488Z,15.38
2022-09-14T03:41:19.332Z,15.38
2022-09-14T03:41:48.645Z,15.38
2022-09-14T03:42:20.723Z,15.38
2022-09-14T03:42:52.776Z,15.38
2022-09-14T03:43:23.170Z,15.50
2022-09-14T03:43:56.697Z,15.50
2022-09-14T03:44:28.717Z,15.50
2022-09-14T03:44:51.403Z,15.38
2022-09-14T03:45:13.849Z,15.38
2022-09-14T03:45:48.777Z,15.38
2022-09-14T03:46:14.871Z,15.38
2022-09-14T03:46:53.707Z,15.38
2022-09-14T03:47:23.643Z,15.38
2022-09-14T03:47:56.836Z,15.38
2022-09-14T03:48:29.099Z,15.38
2022-09-14T03:48:52.036Z,15.38
2022-09-14T03:49:14.408Z,15.38
2022-09-14T03:49:49.780Z,15.50
2022-09-14T03:50:21.347Z,15.50
2022-09-14T03:50:53.173Z,15.50
2022-09-14T03:51:23.437Z,15.50
2022-09-14T03:51:59.816Z,15.50
2022-09-14T03:52:28.907Z,15.50
2022-09-14T03:52:51.702Z,15.50
2022-09-14T03:53:14.676Z,15.50
2022-09-14T03:53:48.745Z,15.50
2022-09-14T03:54:20.645Z,15.50
2022-09-14T03:54:52.755Z,15.50
2022-09-14T03:55:23.358Z,15.50
2022-09-14T03:55:56.687Z,15.50
2022-09-14T03:56:30.067Z,15.50
2022-09-14T03:56:52.653Z,15.50
2022-09-14T03:57:15.010Z,15.50
2022-09-14T03:57:48.776Z,15.50
2022-09-14T03:58:20.819Z,15.50
2022-09-14T03:58:52.642Z,15.50
2022-09-14T03:59:24.468Z,15.50
2022-09-14T03:59:56.758Z,15.50
2022-09-14T04:00:28.775Z,15.50
2022-09-14T04:00:51.390Z,15.50
2022-09-14T04:01:13.777Z,15.50
2022-09-14T04:01:48.819Z,15.50
2022-09-14T04:02:20.806Z,15.50
2022-09-14T04:02:52.933Z,15.50
2022-09-14T04:03:23.431Z,15.50
2022-09-14T04:03:56.693Z,15.38
2022-09-14T04:04:29.129Z,15.38
2022-09-14T04:04:51.828Z,15.38
2022-09-14T04:05:13.971Z,15.38
2022-09-14T04:05:48.984Z,15.38
2022-09-14T04:06:20.661Z,15.38
2022-09-14T04:06:53.530Z,15.38
2022-09-14T04:07:23.711Z,15.38
2022-09-14T04:07:57.247Z,15.38
2022-09-14T04:08:28.969Z,15.38
2022-09-14T04:08:51.622Z,15.38
2022-09-14T04:09:14.933Z,15.38
2022-09-14T04:09:49.023Z,15.38
2022-09-14T04:10:20.946Z,15.38
2022-09-14T04:10:52.932Z,15.38
2022-09-14T04:11:23.260Z,15.38
2022-09-14T04:11:57.253Z,15.38
2022-09-14T04:12:29.565Z,15.38
2022-09-14T04:12:52.241Z,15.38
2022-09-14T04:13:14.675Z,15.38
2022-09-14T04:13:49.957Z,15.38
2022-09-14T04:14:20.732Z,15.38
2022-09-14T04:14:53.737Z,15.38
2022-09-14T04:15:23.414Z,15.38
2022-09-14T04:15:56.766Z,15.38
2022-09-14T04:16:28.661Z,15.38
2022-09-14T04:16:51.668Z,15.38
2022-09-14T04:17:14.031Z,15.38
2022-09-14T04:17:48.955Z,15.38
2022-09-14T04:18:20.796Z,15.38
2022-09-14T04:18:52.899Z,15.38
2022-09-14T04:19:24.033Z,15.38
2022-09-14T04:19:56.672Z,15.38
2022-09-14T04:20:29.000Z,15.38
2022-09-14T04:20:51.832Z,15.38
2022-09-14T04:21:14.562Z,15.38
2022-09-14T04:21:49.045Z,15.38
2022-09-14T04:22:20.514Z,15.38
2022-09-14T04:22:53.161Z,15.38
2022-09-14T04:23:23.321Z,15.38
2022-09-14T04:24:14.643Z,15.38
2022-09-14T04:24:30.612Z,15.38
2022-09-14T04:24:51.535Z,15.38
2022-09-14T04:25:14.773Z,15.38
2022-09-14T04:25:49.097Z,15.38
2022-09-14T04:26:21.205Z,15.38
2022-09-14T04:26:53.393Z,15.27
2022-09-14T04:27:23.780Z,15.27
2022-09-14T04:28:16.627Z,15.27
2022-09-14T04:28:29.773Z,15.27
2022-09-14T04:28:52.458Z,15.27
2022-09-14T04:29:14.925Z,15.27
2022-09-14T04:29:49.393Z,15.27
2022-09-14T04:30:20.978Z,15.27
2022-09-14T04:30:53.581Z,15.27
2022-09-14T04:31:23.353Z,15.27
2022-09-14T04:31:56.686Z,15.27
2022-09-14T04:32:33.510Z,15.27
2022-09-14T04:32:52.953Z,15.27
2022-09-14T04:33:14.032Z,15.27
2022-09-14T04:33:48.822Z,15.27
2022-09-14T04:34:23.162Z,15.27
2022-09-14T04:34:52.854Z,15.27
2022-09-14T04:35:23.378Z,15.27
2022-09-14T04:35:56.727Z,15.27
2022-09-14T04:36:29.180Z,15.27
2022-09-14T04:36:51.868Z,15.27
2022-09-14T04:37:14.601Z,15.27
2022-09-14T04:37:49.242Z,15.27
2022-09-14T04:38:21.446Z,15.27
2022-09-14T04:38:53.164Z,15.27
2022-09-14T04:39:23.388Z,15.27
2022-09-14T04:39:57.058Z,15.27
2022-09-14T04:40:28.883Z,15.27
2022-09-14T04:40:51.535Z,15.27
2022-09-14T04:41:19.365Z,15.27
2022-09-14T04:41:48.931Z,15.27
2022-09-14T04:42:21.116Z,15.27
2022-09-14T04:42:53.147Z,15.27
2022-09-14T04:43:23.856Z,15.27
2022-09-14T04:43:56.733Z,15.27
2022-09-14T04:44:28.937Z,15.27
2022-09-14T04:44:51.536Z,15.27
2022-09-14T04:45:14.089Z,15.27
2022-09-14T04:45:49.277Z,15.27
2022-09-14T04:46:20.646Z,15.27
2022-09-14T04:46:53.227Z,15.22
2022-09-14T04:47:23.620Z,15.22
2022-09-14T04:47:57.421Z,15.22
2022-09-14T04:48:28.949Z,15.22
2022-09-14T04:48:51.549Z,15.22
2022-09-14T04:49:14.879Z,15.22
2022-09-14T04:49:49.263Z,15.22
2022-09-14T04:50:20.665Z,15.22
2022-09-14T04:50:52.708Z,15.22
2022-09-14T04:51:23.448Z,15.22
2022-09-14T04:51:56.560Z,15.22
2022-09-14T04:52:32.033Z,15.22
2022-09-14T04:52:53.360Z,15.22
2022-09-14T04:53:15.848Z,15.22
2022-09-14T04:53:50.201Z,15.22
2022-09-14T04:54:20.655Z,15.11
2022-09-14T04:54:52.976Z,15.11
2022-09-14T04:55:23.788Z,15.11
2022-09-14T04:55:57.453Z,15.11
2022-09-14T04:56:28.655Z,15.11
2022-09-14T04:56:51.272Z,15.11
2022-09-14T04:57:14.407Z,15.11
2022-09-14T04:57:50.558Z,15.11
2022-09-14T04:58:20.777Z,15.11
2022-09-14T04:58:52.819Z,15.11
2022-09-14T04:59:24.416Z,15.11
2022-09-14T04:59:56.749Z,15.11
2022-09-14T05:00:29.060Z,15.11
2022-09-14T05:00:51.715Z,15.11
2022-09-14T05:01:14.149Z,15.00
2022-09-14T05:01:51.229Z,15.00
2022-09-14T05:02:21.040Z,15.00
2022-09-14T05:02:53.790Z,15.00
2022-09-14T05:03:23.501Z,15.00
2022-09-14T05:03:56.872Z,15.00
2022-09-14T05:04:28.889Z,15.00
2022-09-14T05:04:51.854Z,15.00
2022-09-14T05:05:14.502Z,15.00
2022-09-14T05:05:51.726Z,15.00
2022-09-14T05:06:21.037Z,15.00
2022-09-14T05:06:52.747Z,15.00
2022-09-14T05:07:24.056Z,15.00
2022-09-14T05:07:56.969Z,15.00
2022-09-14T05:08:28.734Z,15.00
2022-09-14T05:08:52.382Z,15.00
2022-09-14T05:09:14.229Z,15.11
2022-09-14T05:09:52.948Z,15.11
2022-09-14T05:10:20.975Z,15.11
2022-09-14T05:10:53.546Z,15.00
2022-09-14T05:11:23.598Z,15.00
2022-09-14T05:11:57.105Z,15.00
2022-09-14T05:12:29.129Z,15.00
2022-09-14T05:12:53.247Z,15.00
2022-09-14T05:13:14.867Z,15.00
2022-09-14T05:13:50.515Z,15.00
2022-09-14T05:14:21.396Z,15.00
2022-09-14T05:14:53.475Z,15.00
2022-09-14T05:15:23.866Z,15.00
2022-09-14T05:15:56.784Z,15.00
2022-09-14T05:16:30.435Z,15.00
2022-09-14T05:16:53.800Z,15.00
2022-09-14T05:17:14.019Z,15.00
2022-09-14T05:17:49.047Z,15.00
2022-09-14T05:18:21.028Z,15.00
2022-09-14T05:18:54.238Z,15.00
2022-09-14T05:19:23.676Z,15.00
2022-09-14T05:19:57.185Z,15.00
2022-09-14T05:20:28.792Z,15.00
2022-09-14T05:20:54.572Z,15.00
2022-09-14T05:21:14.933Z,15.00
2022-09-14T05:21:49.107Z,15.00
2022-09-14T05:22:20.954Z,15.00
2022-09-14T05:22:54.946Z,15.00
2022-09-14T05:23:23.282Z,15.00
2022-09-14T05:23:56.673Z,14.88
2022-09-14T05:24:29.265Z,14.88
2022-09-14T05:24:52.185Z,14.88
2022-09-14T05:25:14.622Z,14.88
2022-09-14T05:25:49.783Z,14.77
2022-09-14T05:26:20.943Z,14.77
2022-09-14T05:26:59.951Z,14.77
2022-09-14T05:27:23.451Z,14.77
2022-09-14T05:27:56.884Z,14.77
2022-09-14T05:28:29.101Z,14.77
2022-09-14T05:28:51.672Z,14.77
2022-09-14T05:29:14.535Z,14.77
2022-09-14T05:29:48.991Z,14.77
2022-09-14T05:30:21.909Z,14.77
2022-09-14T05:30:53.290Z,14.77
2022-09-14T05:31:23.495Z,14.77
2022-09-14T05:31:56.618Z,14.77
2022-09-14T05:32:31.536Z,14.77
2022-09-14T05:32:55.257Z,14.77
2022-09-14T05:33:14.210Z,14.77
2022-09-14T05:33:49.762Z,14.77
2022-09-14T05:34:25.443Z,14.77
2022-09-14T05:34:47.810Z,14.72
2022-09-14T05:35:23.530Z,14.72
2022-09-14T05:35:56.809Z,14.72
2022-09-14T05:36:28.950Z,14.72
2022-09-14T05:36:51.314Z,14.72
2022-09-14T05:37:13.803Z,14.72
2022-09-14T05:37:48.788Z,14.72
2022-09-14T05:38:20.743Z,14.72
2022-09-14T05:38:52.616Z,14.72
2022-09-14T05:39:23.500Z,14.72
2022-09-14T05:39:57.279Z,14.72
2022-09-14T05:40:28.811Z,14.72
2022-09-14T05:40:57.542Z,14.72
2022-09-14T05:41:32.719Z,14.72
2022-09-14T05:41:57.921Z,14.72
2022-09-14T05:42:18.028Z,14.72
2022-09-14T05:42:52.899Z,14.72
2022-09-14T05:43:23.344Z,14.72
2022-09-14T05:43:59.952Z,14.61
2022-09-14T05:44:28.624Z,14.61
2022-09-14T05:44:51.426Z,14.61
2022-09-14T05:45:13.678Z,14.61
2022-09-14T05:45:48.798Z,14.61
2022-09-14T05:46:21.029Z,14.61
2022-09-14T05:46:52.739Z,14.61
2022-09-14T05:47:24.741Z,14.61
2022-09-14T05:47:59.127Z,14.61
2022-09-14T05:48:28.706Z,14.61
2022-09-14T05:48:52.539Z,14.61
2022-09-14T05:49:14.710Z,14.61
2022-09-14T05:49:48.723Z,14.50
2022-09-14T05:50:20.957Z,14.50
2022-09-14T05:50:52.584Z,14.50
2022-09-14T05:51:23.367Z,14.50
2022-09-14T05:51:59.754Z,14.50
2022-09-14T05:52:28.761Z,14.50
2022-09-14T05:52:52.187Z,14.50
2022-09-14T05:53:14.386Z,14.50
2022-09-14T05:53:48.685Z,14.50
2022-09-14T05:54:20.813Z,14.50
2022-09-14T05:54:52.766Z,14.50
2022-09-14T05:55:23.541Z,14.61
2022-09-14T05:55:56.709Z,14.61
2022-09-14T05:56:29.092Z,14.61
2022-09-14T05:56:52.178Z,14.61
2022-09-14T05:57:14.741Z,14.61
2022-09-14T05:57:48.715Z,14.61
2022-09-14T05:58:20.594Z,14.61
2022-09-14T05:58:52.678Z,14.61
2022-09-14T05:59:23.562Z,14.61
2022-09-14T05:59:58.225Z,14.61
2022-09-14T06:00:28.657Z,14.61
2022-09-14T06:00:51.382Z,14.61
2022-09-14T06:01:13.690Z,14.61
2022-09-14T06:01:48.909Z,14.61
2022-09-14T06:02:20.659Z,14.61
2022-09-14T06:02:52.608Z,14.61
2022-09-14T06:03:23.775Z,14.50
2022-09-14T06:03:56.762Z,14.50
2022-09-14T06:04:25.019Z,14.50
2022-09-14T06:04:56.062Z,14.50
2022-09-14T06:05:33.635Z,14.50
2022-09-14T06:05:55.904Z,14.50
2022-09-14T06:06:19.512Z,14.50
2022-09-14T06:07:17.086Z,14.50
2022-09-14T06:07:23.500Z,14.38
2022-09-14T06:07:56.666Z,14.38
2022-09-14T06:08:28.700Z,14.38
2022-09-14T06:08:51.463Z,14.38
2022-09-14T06:09:14.070Z,14.38
2022-09-14T06:09:48.785Z,14.38
2022-09-14T06:10:21.241Z,14.38
2022-09-14T06:10:54.111Z,14.38
2022-09-14T06:11:23.631Z,14.38
2022-09-14T06:11:57.486Z,14.38
2022-09-14T06:12:28.726Z,14.38
2022-09-14T06:12:55.363Z,14.38
2022-09-14T06:13:14.129Z,14.38
2022-09-14T06:13:51.417Z,14.27
2022-09-14T06:14:21.138Z,14.27
2022-09-14T06:14:53.744Z,14.27
2022-09-14T06:15:23.725Z,14.27
2022-09-14T06:15:56.722Z,14.27
2022-09-14T06:16:28.989Z,14.27
2022-09-14T06:16:51.687Z,14.27
2022-09-14T06:17:14.002Z,14.27
2022-09-14T06:17:49.386Z,14.38
2022-09-14T06:18:20.775Z,14.38
2022-09-14T06:18:54.098Z,14.38
2022-09-14T06:19:23.411Z,14.38
2022-09-14T06:19:59.152Z,14.38
2022-09-14T06:20:28.876Z,14.38
2022-09-14T06:20:51.791Z,14.38
2022-09-14T06:21:14.145Z,14.38
2022-09-14T06:21:48.711Z,14.38
2022-09-14T06:22:20.879Z,14.38
2022-09-14T06:22:52.865Z,14.38
2022-09-14T06:23:23.400Z,14.38
2022-09-14T06:23:56.626Z,14.38
2022-09-14T06:24:29.339Z,14.38
2022-09-14T06:24:52.030Z,14.38
2022-09-14T06:25:14.556Z,14.38
2022-09-14T06:25:49.718Z,14.38
2022-09-14T06:26:21.564Z,14.38